Time;durP1;ratioP1;P1;durP2;ratioP2;P2;SDS_P1;SDS_P2;PMS_P1;PMS_P2;Temp;Humidity;BMP_temperature;BMP_pressure;BME280_temperature;BME280_humidity;BME280_pressure;Samples;Min_cycle;Max_cycle;Signal;HPM_P1;HPM_P2
2023/06/13 00:00:49;;;;;;;9.93;4.25;;;;;;;17.90;41.61;101052.38;7397071;19;20086;-68
2023/06/13 00:03:19;;;;;;;6.68;4.40;;;;;;;17.88;41.86;101054.25;7396002;19;20085;-68
2023/06/13 00:05:49;;;;;;;6.05;4.38;;;;;;;17.85;41.97;101045.56;7395915;19;20015;-68
2023/06/13 00:08:21;;;;;;;4.75;4.35;;;;;;;17.82;41.96;101046.59;7394495;19;20517;-68
2023/06/13 00:10:52;;;;;;;8.32;5.07;;;;;;;17.81;42.21;101041.34;7395237;19;20018;-68
2023/06/13 00:13:21;;;;;;;5.53;4.07;;;;;;;17.78;41.98;101033.53;7395986;19;20074;-68
2023/06/13 00:15:51;;;;;;;7.45;3.97;;;;;;;17.74;42.41;101036.34;7396362;19;20394;-68
2023/06/13 00:18:22;;;;;;;5.93;4.97;;;;;;;17.68;42.59;101039.28;7395350;19;20081;-68
2023/06/13 00:20:52;;;;;;;6.35;4.35;;;;;;;17.65;42.57;101044.72;7395854;19;20015;-68
2023/06/13 00:23:20;;;;;;;6.85;4.80;;;;;;;17.62;42.44;101039.56;7395410;19;20022;-68
2023/06/13 00:25:51;;;;;;;6.47;4.82;;;;;;;17.61;42.59;101034.34;7394392;19;20084;-68
2023/06/13 00:28:20;;;;;;;5.30;3.97;;;;;;;17.57;42.67;101037.09;7394724;19;20015;-67
2023/06/13 00:30:49;;;;;;;6.32;4.32;;;;;;;17.54;42.68;101031.09;7395885;19;20025;-68
2023/06/13 00:33:18;;;;;;;6.88;5.10;;;;;;;17.51;43.32;101031.25;7393995;19;20035;-68
2023/06/13 00:35:53;;;;;;;5.75;5.18;;;;;;;17.49;43.40;101038.41;7392216;19;20390;-68
2023/06/13 00:38:23;;;;;;;8.85;5.43;;;;;;;17.47;43.36;101040.28;7394154;19;20033;-68
2023/06/13 00:40:54;;;;;;;5.60;4.70;;;;;;;17.42;43.42;101030.72;7395653;19;20050;-68
2023/06/13 00:43:23;;;;;;;5.28;4.32;;;;;;;17.39;43.70;101030.03;7395094;19;20019;-68
2023/06/13 00:45:51;;;;;;;4.90;4.40;;;;;;;17.35;43.78;101036.38;7393791;19;20025;-68
2023/06/13 00:48:19;;;;;;;7.28;4.50;;;;;;;17.31;43.88;101026.84;7395015;19;20078;-68
2023/06/13 00:50:49;;;;;;;5.35;4.50;;;;;;;17.25;44.30;101026.19;7395407;19;20074;-68
2023/06/13 00:53:19;;;;;;;8.13;5.25;;;;;;;17.20;44.46;101017.59;7394569;19;20029;-68
2023/06/13 00:55:48;;;;;;;5.55;4.40;;;;;;;17.15;45.04;101019.59;7393136;19;20015;-68
2023/06/13 00:58:19;;;;;;;5.25;4.30;;;;;;;17.09;45.48;101020.72;7393889;19;20022;-68
2023/06/13 01:00:49;;;;;;;7.00;4.40;;;;;;;17.03;45.25;101017.47;7395499;19;20082;-68
2023/06/13 01:03:18;;;;;;;5.18;4.22;;;;;;;16.98;45.67;101008.88;7394185;19;20383;-67
2023/06/13 01:05:48;;;;;;;6.13;4.80;;;;;;;16.90;45.76;101009.19;7393161;19;20026;-68
2023/06/13 01:08:19;;;;;;;13.43;4.88;;;;;;;16.83;46.14;101013.03;7394912;19;20022;-67
2023/06/13 01:10:52;;;;;;;8.25;5.15;;;;;;;16.76;46.33;101015.09;7394765;19;20413;-68
2023/06/13 01:13:30;;;;;;;18.38;6.30;;;;;;;16.69;46.33;101016.28;7393950;19;20039;-67
2023/06/13 01:16:05;;;;;;;10.93;4.97;;;;;;;16.61;46.90;101016.59;7393537;19;20010;-68
2023/06/13 01:18:37;;;;;;;19.85;5.43;;;;;;;16.55;46.90;101017.72;7393609;19;20078;-67
2023/06/13 01:21:08;;;;;;;26.95;7.70;;;;;;;16.48;46.99;101021.56;7394781;19;20022;-67
2023/06/13 01:23:55;;;;;;;30.77;8.23;;;;;;;16.40;47.46;101015.72;7393639;19;20014;-67
2023/06/13 01:26:42;;;;;;;21.00;7.47;;;;;;;16.32;47.51;101017.84;7394906;19;20098;-67
2023/06/13 01:29:12;;;;;;;23.33;7.70;;;;;;;16.24;47.47;101021.66;7394759;19;20029;-67
2023/06/13 01:31:43;;;;;;;20.55;7.40;;;;;;;16.17;47.74;101012.22;7394280;19;20094;-67
2023/06/13 01:34:12;;;;;;;15.63;6.72;;;;;;;16.09;47.90;101012.56;7392192;19;20341;-67
2023/06/13 01:36:41;;;;;;;12.75;6.00;;;;;;;16.02;47.83;101008.41;7392134;19;20078;-67
2023/06/13 01:39:10;;;;;;;18.42;6.50;;;;;;;15.95;48.16;101006.97;7392104;19;20022;-67
2023/06/13 01:41:41;;;;;;;18.17;6.30;;;;;;;15.88;48.56;101008.13;7394010;19;20108;-67
2023/06/13 01:44:13;;;;;;;8.68;5.85;;;;;;;15.80;48.82;101009.25;7392142;19;20078;-67
2023/06/13 01:46:50;;;;;;;11.50;6.30;;;;;;;15.73;48.71;101007.78;7395442;19;20019;-67
2023/06/13 01:49:28;;;;;;;9.60;5.40;;;;;;;15.67;48.98;101001.84;7400830;19;20549;-67
2023/06/13 01:52:06;;;;;;;12.93;6.05;;;;;;;15.60;49.29;100998.59;7400874;19;20464;-67
2023/06/13 01:54:40;;;;;;;10.50;5.95;;;;;;;15.54;49.08;101007.59;7399678;19;20070;-67
2023/06/13 01:57:15;;;;;;;7.13;5.78;;;;;;;15.48;49.50;101006.06;7402741;19;20021;-67
2023/06/13 01:59:46;;;;;;;7.82;5.70;;;;;;;15.40;49.76;100989.63;7402149;19;20074;-65
2023/06/13 02:02:16;;;;;;;8.43;6.00;;;;;;;15.35;49.86;100998.66;7399057;19;20022;-66
2023/06/13 02:04:45;;;;;;;6.93;5.13;;;;;;;15.27;49.91;101002.44;7397946;19;20074;-65
2023/06/13 02:07:14;;;;;;;15.15;6.20;;;;;;;15.22;49.94;100993.84;7400604;19;20014;-65
2023/06/13 02:09:42;;;;;;;14.00;7.68;;;;;;;15.18;50.17;100996.63;7397935;19;20082;-65
2023/06/13 02:12:15;;;;;;;9.75;7.10;;;;;;;15.09;50.13;100996.06;7400430;19;20102;-66
2023/06/13 02:14:43;;;;;;;13.38;8.27;;;;;;;15.04;50.11;100990.09;7397704;19;20482;-66
2023/06/13 02:17:12;;;;;;;12.10;7.88;;;;;;;14.99;50.62;100992.91;7400043;19;20077;-66
2023/06/13 02:19:40;;;;;;;12.43;7.78;;;;;;;14.94;50.46;100992.22;7397598;19;20370;-66
2023/06/13 02:22:09;;;;;;;10.57;8.15;;;;;;;14.92;50.77;100990.53;7397238;19;20485;-66
2023/06/13 02:24:38;;;;;;;8.25;7.30;;;;;;;14.89;50.68;100990.66;7397640;19;20074;-66
2023/06/13 02:27:07;;;;;;;8.57;7.28;;;;;;;14.85;50.85;100987.25;7397522;19;20018;-67
2023/06/13 02:29:38;;;;;;;10.40;6.55;;;;;;;14.81;50.76;100989.16;7399911;19;20128;-67
2023/06/13 02:32:08;;;;;;;10.10;6.82;;;;;;;14.79;50.87;100990.13;7400063;19;20019;-67
2023/06/13 02:34:36;;;;;;;9.23;6.68;;;;;;;14.78;50.99;100983.97;7396578;19;20554;-67
2023/06/13 02:37:04;;;;;;;9.43;7.35;;;;;;;14.77;51.03;100987.53;7399168;19;20413;-67
2023/06/13 02:39:33;;;;;;;8.50;6.43;;;;;;;14.76;51.17;100988.44;7397025;19;20028;-66
2023/06/13 02:42:01;;;;;;;8.60;6.68;;;;;;;14.75;51.10;100984.09;7399193;19;20043;-67
2023/06/13 02:44:30;;;;;;;8.75;7.45;;;;;;;14.76;50.88;100991.09;7396470;19;20490;-67
2023/06/13 02:47:01;;;;;;;8.73;6.47;;;;;;;14.76;51.38;100996.38;7399296;19;20022;-67
2023/06/13 02:49:29;;;;;;;10.77;6.63;;;;;;;14.77;51.16;101002.50;7399594;19;20010;-67
2023/06/13 02:51:58;;;;;;;8.18;6.03;;;;;;;14.76;51.74;100996.38;7399235;19;20022;-67
2023/06/13 02:54:26;;;;;;;9.02;6.22;;;;;;;14.77;51.67;100994.59;7397056;19;20015;-67
2023/06/13 02:56:55;;;;;;;8.32;6.40;;;;;;;14.76;51.93;100996.38;7396571;19;20015;-67
2023/06/13 02:59:26;;;;;;;6.75;5.80;;;;;;;14.75;52.02;100989.38;7394753;19;20422;-67
2023/06/13 03:01:54;;;;;;;8.65;6.00;;;;;;;14.76;52.13;100988.44;7398470;19;20082;-67
2023/06/13 03:04:28;;;;;;;8.50;6.10;;;;;;;14.77;51.92;100998.09;7395936;19;20370;-67
2023/06/13 03:06:57;;;;;;;7.38;6.63;;;;;;;14.77;52.01;100998.09;7396853;19;20025;-67
2023/06/13 03:09:25;;;;;;;6.35;5.57;;;;;;;14.78;52.08;100996.31;7396137;19;20014;-67
2023/06/13 03:11:53;;;;;;;8.68;6.45;;;;;;;14.78;52.14;100989.25;7397841;19;20030;-67
2023/06/13 03:14:22;;;;;;;9.77;6.43;;;;;;;14.78;52.23;100989.25;7396483;19;20025;-66
2023/06/13 03:16:52;;;;;;;7.68;6.32;;;;;;;14.79;52.20;100987.47;7395967;19;20010;-66
2023/06/13 03:19:21;;;;;;;8.13;6.22;;;;;;;14.79;52.14;100980.41;7396119;19;20018;-67
2023/06/13 03:21:52;;;;;;;11.50;6.45;;;;;;;14.81;52.35;100983.88;7397698;19;20350;-67
2023/06/13 03:24:20;;;;;;;9.55;7.15;;;;;;;14.83;52.36;100983.81;7396064;19;20015;-67
2023/06/13 03:27:12;;;;;;;11.13;6.93;;;;;;;14.84;51.94;100985.53;7397896;19;20013;-66
2023/06/13 03:29:41;;;;;;;10.98;7.03;;;;;;;14.87;52.04;100987.19;7397696;19;20046;-67
2023/06/13 03:32:11;;;;;;;8.60;6.70;;;;;;;14.86;52.04;100986.34;7397626;19;20022;-67
2023/06/13 03:34:52;;;;;;;8.35;6.53;;;;;;;14.86;52.04;100989.00;7394093;19;20470;-67
2023/06/13 03:37:23;;;;;;;10.23;6.95;;;;;;;14.88;52.26;100986.28;7397491;19;20026;-66
2023/06/13 03:39:52;;;;;;;11.23;7.63;;;;;;;14.87;52.27;100974.00;7395510;19;20082;-66
2023/06/13 03:42:20;;;;;;;8.30;6.55;;;;;;;14.85;52.19;100976.69;7395155;19;20018;-67
2023/06/13 03:44:49;;;;;;;9.55;7.43;;;;;;;14.82;52.34;100971.50;7395167;19;20039;-67
2023/06/13 03:47:17;;;;;;;12.88;8.13;;;;;;;14.80;52.35;100982.13;7396717;19;20014;-67
2023/06/13 03:49:46;;;;;;;14.38;7.75;;;;;;;14.78;52.50;100983.09;7397107;19;20022;-67
2023/06/13 03:52:15;;;;;;;8.45;6.93;;;;;;;14.75;52.42;100984.09;7397239;19;20027;-66
2023/06/13 03:54:46;;;;;;;7.70;6.85;;;;;;;14.73;52.38;100975.34;7395265;19;20022;-66
2023/06/13 03:57:14;;;;;;;11.45;7.28;;;;;;;14.71;52.61;100977.19;7396278;19;20361;-68
2023/06/13 03:59:43;;;;;;;10.13;6.95;;;;;;;14.69;52.57;100973.72;7395119;19;20035;-67
2023/06/13 04:02:13;;;;;;;10.80;7.57;;;;;;;14.68;52.78;100973.78;7394947;19;20022;-67
2023/06/13 04:04:42;;;;;;;10.52;7.07;;;;;;;14.65;52.88;100972.97;7394477;19;20415;-68
2023/06/13 04:07:11;;;;;;;10.75;7.35;;;;;;;14.64;52.69;100975.63;7396117;19;20163;-66
2023/06/13 04:09:39;;;;;;;8.68;7.18;;;;;;;14.63;53.08;100976.56;7394005;19;20035;-66
2023/06/13 04:12:12;;;;;;;8.45;7.05;;;;;;;14.63;53.02;100976.56;7394154;19;20474;-66
2023/06/13 04:14:41;;;;;;;8.60;7.18;;;;;;;14.61;53.22;100975.75;7394462;19;20021;-66
2023/06/13 04:17:09;;;;;;;13.30;7.35;;;;;;;14.59;53.20;100970.50;7394599;19;20022;-66
2023/06/13 04:19:38;;;;;;;10.50;7.93;;;;;;;14.58;53.41;100968.78;7394456;19;20035;-66
2023/06/13 04:22:08;;;;;;;11.65;7.75;;;;;;;14.57;53.40;100964.44;7395308;19;20486;-66
2023/06/13 04:24:36;;;;;;;61.30;38.47;;;;;;;14.57;53.40;100968.84;7394213;19;20022;-67
2023/06/13 04:27:08;;;;;;;16.48;11.02;;;;;;;14.57;53.54;100966.19;7395604;19;20031;-67
2023/06/13 04:29:40;;;;;;;16.42;11.27;;;;;;;14.56;53.81;100968.00;7395982;19;20025;-67
2023/06/13 04:32:17;;;;;;;11.93;8.45;;;;;;;14.57;53.71;100968.84;7397221;19;20090;-66
2023/06/13 04:34:52;;;;;;;8.60;7.72;;;;;;;14.57;53.74;100964.44;7393485;19;20042;-67
2023/06/13 04:37:23;;;;;;;8.77;7.88;;;;;;;14.56;53.73;100962.72;7395106;19;20029;-66
2023/06/13 04:39:52;;;;;;;12.32;8.55;;;;;;;14.57;53.56;100963.56;7392206;19;20028;-66
2023/06/13 04:42:24;;;;;;;11.65;7.38;;;;;;;14.59;53.43;100972.31;7394507;19;20014;-66
2023/06/13 04:44:58;;;;;;;13.05;7.68;;;;;;;14.59;53.32;100962.59;7395227;19;20021;-66
2023/06/13 04:47:29;;;;;;;11.52;7.53;;;;;;;14.61;53.48;100960.75;7395047;19;20024;-66
2023/06/13 04:49:59;;;;;;;9.43;7.35;;;;;;;14.64;53.26;100954.50;7396111;19;20022;-66
2023/06/13 04:52:29;;;;;;;10.05;7.35;;;;;;;14.66;53.20;100966.78;7394846;19;20022;-67
2023/06/13 04:55:00;;;;;;;11.43;7.50;;;;;;;14.70;53.15;100966.66;7394592;19;20018;-66
2023/06/13 04:57:29;;;;;;;13.18;7.47;;;;;;;14.71;53.11;100964.00;7395212;19;20038;-66
2023/06/13 05:00:00;;;;;;;10.77;6.95;;;;;;;14.73;53.01;100961.28;7392308;19;20023;-66
2023/06/13 05:02:29;;;;;;;7.75;6.85;;;;;;;14.77;52.88;100963.78;7394270;19;20018;-66
2023/06/13 05:04:58;;;;;;;9.05;7.22;;;;;;;14.81;53.16;100962.72;7391560;19;20018;-68
2023/06/13 05:07:28;;;;;;;12.02;7.00;;;;;;;14.85;52.86;100967.91;7393528;19;20015;-67
2023/06/13 05:09:57;;;;;;;10.07;7.88;;;;;;;14.89;52.89;100958.97;7391887;19;20042;-67
2023/06/13 05:12:25;;;;;;;8.52;6.70;;;;;;;14.92;52.89;100956.19;7391825;19;20022;-67
2023/06/13 05:14:54;;;;;;;7.35;6.55;;;;;;;14.96;52.82;100950.75;7393574;19;20014;-67
2023/06/13 05:17:27;;;;;;;10.68;6.68;;;;;;;15.03;52.87;100953.16;7390872;19;20034;-67
2023/06/13 05:19:56;;;;;;;12.93;7.03;;;;;;;15.09;52.77;100956.44;7392515;19;20015;-66
2023/06/13 05:22:24;;;;;;;6.55;5.85;;;;;;;15.17;52.44;100955.31;7396274;19;20093;-66
2023/06/13 05:24:53;;;;;;;8.75;5.72;;;;;;;15.20;52.11;100950.72;7397006;19;20019;-67
2023/06/13 05:27:22;;;;;;;10.48;5.90;;;;;;;15.30;51.84;100954.78;7398614;19;20026;-67
2023/06/13 05:29:50;;;;;;;7.82;5.22;;;;;;;15.34;51.69;100963.44;7400000;19;20022;-67
2023/06/13 05:32:19;;;;;;;8.32;5.38;;;;;;;15.38;51.57;100959.75;7400912;19;20018;-69
2023/06/13 05:34:50;;;;;;;6.72;5.07;;;;;;;15.44;51.49;100967.47;7397525;19;20477;-67
2023/06/13 05:37:18;;;;;;;7.90;5.65;;;;;;;15.51;51.43;100970.72;7400629;19;20518;-68
2023/06/13 05:39:47;;;;;;;9.38;5.43;;;;;;;15.58;51.38;100968.69;7397953;19;20018;-67
2023/06/13 05:42:15;;;;;;;8.25;5.85;;;;;;;15.66;51.40;100963.97;7400090;19;20022;-67
2023/06/13 05:44:44;;;;;;;6.75;5.53;;;;;;;15.76;51.05;100967.97;7397742;19;20018;-68
2023/06/13 05:47:12;;;;;;;7.22;5.60;;;;;;;15.85;50.72;100965.94;7399988;19;20494;-68
2023/06/13 05:49:41;;;;;;;9.88;5.68;;;;;;;15.90;50.63;100971.91;7400475;19;20019;-68
2023/06/13 05:52:12;;;;;;;7.07;5.80;;;;;;;15.96;50.87;100961.91;7400754;19;20018;-68
2023/06/13 05:54:41;;;;;;;6.97;5.35;;;;;;;16.01;50.55;100950.28;7397989;19;20131;-67
2023/06/13 05:57:11;;;;;;;10.63;5.43;;;;;;;16.06;50.44;100958.88;7397810;19;20423;-71
2023/06/13 05:59:39;;;;;;;9.27;5.30;;;;;;;16.13;50.53;100963.84;7397647;19;20039;-66
2023/06/13 06:02:09;;;;;;;5.75;5.15;;;;;;;16.21;50.45;100952.09;7399749;19;20508;-66
2023/06/13 06:04:38;;;;;;;8.43;5.47;;;;;;;16.28;50.58;100941.19;7396891;19;20026;-65
2023/06/13 06:07:07;;;;;;;6.68;5.15;;;;;;;16.37;50.30;100941.72;7396886;19;20035;-66
2023/06/13 06:09:38;;;;;;;6.68;5.13;;;;;;;16.42;50.04;100937.94;7399118;19;20010;-65
2023/06/13 06:12:08;;;;;;;8.68;5.97;;;;;;;16.50;50.30;100936.75;7399105;19;20018;-66
2023/06/13 06:14:36;;;;;;;8.57;5.03;;;;;;;16.55;49.87;100934.75;7397005;19;20482;-66
2023/06/13 06:17:05;;;;;;;6.32;5.13;;;;;;;16.61;50.01;100930.03;7397323;19;20063;-67
2023/06/13 06:19:33;;;;;;;6.25;4.88;;;;;;;16.69;49.73;100931.50;7397932;19;20078;-65
2023/06/13 06:22:02;;;;;;;6.40;4.70;;;;;;;16.74;49.23;100933.03;7399892;19;20019;-67
2023/06/13 06:24:30;;;;;;;11.57;5.03;;;;;;;16.81;48.99;100920.38;7396468;19;20085;-65
2023/06/13 06:27:01;;;;;;;8.73;4.68;;;;;;;16.89;48.70;100930.63;7399250;19;20015;-65
2023/06/13 06:29:31;;;;;;;6.85;4.32;;;;;;;16.94;48.65;100921.53;7397293;19;20022;-66
2023/06/13 06:31:59;;;;;;;8.82;5.03;;;;;;;17.03;48.57;100924.72;7399141;19;20023;-67
2023/06/13 06:34:28;;;;;;;8.48;5.45;;;;;;;17.12;48.32;100918.97;7394756;19;20423;-66
2023/06/13 06:36:56;;;;;;;6.20;4.60;;;;;;;17.23;48.11;100915.84;7398720;19;20014;-66
2023/06/13 06:39:25;;;;;;;7.18;4.85;;;;;;;17.32;47.63;100912.75;7396108;19;20352;-65
2023/06/13 06:41:53;;;;;;;8.55;3.70;;;;;;;17.40;47.52;100913.25;7396058;19;20386;-65
2023/06/13 06:44:24;;;;;;;6.20;4.30;;;;;;;17.51;47.22;100909.22;7396430;19;20032;-67
2023/06/13 06:46:53;;;;;;;8.68;4.50;;;;;;;17.61;47.39;100909.66;7399093;19;20035;-66
2023/06/13 06:49:21;;;;;;;8.70;4.82;;;;;;;17.70;47.21;100904.72;7398628;19;20018;-65
2023/06/13 06:51:50;;;;;;;6.03;4.20;;;;;;;17.81;47.22;100906.84;7398418;19;20023;-65
2023/06/13 06:54:18;;;;;;;7.07;4.60;;;;;;;17.92;46.77;100920.47;7396561;19;20035;-66
2023/06/13 06:56:47;;;;;;;6.30;4.45;;;;;;;18.02;46.38;100920.91;7396490;19;20032;-67
2023/06/13 06:59:15;;;;;;;6.35;4.43;;;;;;;18.14;46.20;100918.56;7395920;19;20035;-65
2023/06/13 07:01:48;;;;;;;5.13;4.15;;;;;;;18.22;46.10;100911.03;7395859;19;20022;-64
2023/06/13 07:04:16;;;;;;;8.85;4.60;;;;;;;18.33;46.13;100911.34;7397190;19;20038;-65
2023/06/13 07:06:45;;;;;;;9.07;4.97;;;;;;;18.46;45.70;100910.72;7398491;19;20035;-65
2023/06/13 07:09:13;;;;;;;6.88;4.05;;;;;;;18.56;45.72;100902.19;7395947;19;20022;-65
2023/06/13 07:11:42;;;;;;;8.15;4.32;;;;;;;18.68;45.28;100906.00;7398598;19;20015;-65
2023/06/13 07:14:10;;;;;;;7.50;3.58;;;;;;;18.80;45.17;100895.66;7396207;19;20035;-65
2023/06/13 07:16:39;;;;;;;8.43;4.13;;;;;;;18.92;44.72;100907.44;7395821;19;20024;-65
2023/06/13 07:19:11;;;;;;;4.75;3.38;;;;;;;19.05;43.55;100912.00;7397621;19;20014;-65
2023/06/13 07:21:40;;;;;;;5.28;3.55;;;;;;;19.16;43.94;100899.94;7396452;19;20031;-65
2023/06/13 07:24:09;;;;;;;9.20;4.32;;;;;;;19.27;43.44;100909.97;7396341;19;20031;-65
2023/06/13 07:26:37;;;;;;;5.05;3.38;;;;;;;19.36;43.37;100901.47;7397585;19;20078;-66
2023/06/13 07:29:06;;;;;;;10.75;3.60;;;;;;;19.46;43.34;100907.13;7397361;19;20019;-66
2023/06/13 07:31:34;;;;;;;6.30;4.00;;;;;;;19.56;42.99;100900.34;7397247;19;20032;-65
2023/06/13 07:34:03;;;;;;;5.25;3.97;;;;;;;19.65;42.55;100898.94;7395147;19;20134;-65
2023/06/13 07:36:34;;;;;;;16.55;4.22;;;;;;;19.72;42.15;100895.00;7395098;19;20443;-65
2023/06/13 07:39:11;;;;;;;5.95;3.60;;;;;;;19.80;41.71;100905.19;7397336;19;20018;-65
2023/06/13 07:41:40;;;;;;;6.57;3.33;;;;;;;19.87;41.22;100901.28;7395713;19;20018;-65
2023/06/13 07:44:09;;;;;;;4.65;3.55;;;;;;;19.92;41.30;100899.19;7395582;19;20039;-65
2023/06/13 07:46:37;;;;;;;8.27;3.28;;;;;;;19.97;41.31;100896.28;7396476;19;20014;-65
2023/06/13 07:49:05;;;;;;;11.48;4.28;;;;;;;20.04;41.84;100896.75;7394468;19;20078;-66
2023/06/13 07:51:37;;;;;;;6.30;3.70;;;;;;;20.13;42.20;100897.06;7394042;19;20015;-66
2023/06/13 07:54:05;;;;;;;6.78;3.55;;;;;;;20.21;42.40;100888.63;7395616;19;20082;-66
2023/06/13 07:56:34;;;;;;;7.70;4.03;;;;;;;20.28;42.42;100887.31;7394767;19;20026;-65
2023/06/13 07:59:03;;;;;;;7.88;3.97;;;;;;;20.38;42.42;100892.06;7394620;19;20018;-66
2023/06/13 08:01:31;;;;;;;8.27;4.35;;;;;;;20.47;42.40;100891.50;7398591;19;20037;-67
2023/06/13 08:04:00;;;;;;;5.35;3.88;;;;;;;20.56;42.03;100895.41;7394897;19;20023;-67
2023/06/13 08:06:28;;;;;;;9.20;3.33;;;;;;;20.64;41.89;100899.31;7395610;19;20471;-67
2023/06/13 08:08:59;;;;;;;8.38;3.58;;;;;;;20.71;40.60;100883.81;7395357;19;20362;-68
2023/06/13 08:11:28;;;;;;;7.65;3.70;;;;;;;20.78;41.18;100876.31;7396502;19;20022;-68
2023/06/13 08:13:56;;;;;;;6.30;3.42;;;;;;;20.85;40.81;100879.44;7394142;19;20015;-67
2023/06/13 08:16:25;;;;;;;10.45;4.15;;;;;;;20.92;40.86;100881.63;7396012;19;20039;-67
2023/06/13 08:18:53;;;;;;;9.90;4.07;;;;;;;21.01;40.17;100874.84;7394146;19;20068;-67
2023/06/13 08:21:22;;;;;;;8.65;4.25;;;;;;;21.09;39.49;100869.91;7393360;19;20022;-69
2023/06/13 08:23:51;;;;;;;6.13;4.03;;;;;;;21.16;38.21;100875.69;7393461;19;20014;-68
2023/06/13 08:26:24;;;;;;;6.68;3.53;;;;;;;21.21;36.62;100878.91;7395211;19;20018;-65
2023/06/13 08:28:53;;;;;;;4.40;3.03;;;;;;;21.27;37.33;100878.53;7395925;19;20026;-67
2023/06/13 08:31:23;;;;;;;8.73;3.10;;;;;;;21.35;36.21;100885.19;7394928;19;20021;-68
2023/06/13 08:33:52;;;;;;;4.22;3.45;;;;;;;21.42;36.38;100883.81;7393832;19;20022;-67
2023/06/13 08:36:20;;;;;;;10.98;4.80;;;;;;;21.47;35.53;100884.34;7392967;19;20018;-67
2023/06/13 08:38:49;;;;;;;4.85;3.40;;;;;;;21.54;35.43;100880.34;7394989;19;20513;-66
2023/06/13 08:41:18;;;;;;;9.23;3.17;;;;;;;21.62;34.98;100885.19;7393389;19;20014;-68
2023/06/13 08:43:49;;;;;;;7.03;3.30;;;;;;;21.71;34.71;100889.06;7393808;19;20546;-67
2023/06/13 08:46:18;;;;;;;8.10;3.25;;;;;;;21.79;34.21;100886.75;7395617;19;20018;-67
2023/06/13 08:48:46;;;;;;;8.30;3.22;;;;;;;21.83;33.82;100885.59;7394615;19;20553;-67
2023/06/13 08:51:16;;;;;;;7.68;2.95;;;;;;;21.87;33.52;100879.06;7393220;19;20035;-67
2023/06/13 08:53:51;;;;;;;9.23;3.10;;;;;;;21.90;32.35;100878.88;7393009;19;20374;-67
2023/06/13 08:56:25;;;;;;;10.18;3.38;;;;;;;21.96;32.76;100885.63;7391570;19;20022;-67
2023/06/13 08:59:06;;;;;;;7.70;3.05;;;;;;;22.03;31.61;100876.22;7394648;19;20387;-67
2023/06/13 09:01:43;;;;;;;5.47;3.33;;;;;;;22.10;30.62;100874.00;7392303;19;20533;-68
2023/06/13 09:04:13;;;;;;;4.28;2.85;;;;;;;22.18;31.06;100892.16;7393252;19;20026;-67
2023/06/13 09:06:43;;;;;;;7.88;4.35;;;;;;;22.24;31.21;100876.59;7393397;19;20082;-67
2023/06/13 09:09:16;;;;;;;6.07;3.50;;;;;;;22.33;30.60;100884.91;7392495;19;20074;-68
2023/06/13 09:11:47;;;;;;;5.97;3.43;;;;;;;22.39;30.28;100884.53;7394646;19;20014;-68
2023/06/13 09:14:19;;;;;;;11.13;4.07;;;;;;;22.46;29.83;100883.16;7392143;19;20368;-67
2023/06/13 09:16:51;;;;;;;11.80;3.85;;;;;;;22.55;30.36;100878.97;7392355;19;20392;-67
2023/06/13 09:19:20;;;;;;;19.92;9.40;;;;;;;22.64;29.89;100886.34;7391479;19;20018;-66
2023/06/13 09:21:49;;;;;;;33.30;14.95;;;;;;;22.72;29.65;100891.13;7391671;19;20541;-67
2023/06/13 09:24:18;;;;;;;11.13;5.72;;;;;;;22.77;29.47;100905.03;7391910;19;20035;-68
2023/06/13 09:26:47;;;;;;;9.68;5.30;;;;;;;22.77;29.52;100897.00;7391921;19;20035;-69
2023/06/13 09:29:19;;;;;;;12.70;4.85;;;;;;;22.78;29.01;100896.06;7391307;19;20011;-68
2023/06/13 09:31:47;;;;;;;7.93;3.47;;;;;;;22.83;29.85;100896.59;7392362;19;20099;-68
2023/06/13 09:34:16;;;;;;;11.30;4.25;;;;;;;22.87;29.61;100890.03;7391530;19;20374;-67
2023/06/13 09:36:46;;;;;;;5.97;3.00;;;;;;;22.95;29.41;100894.88;7391104;19;20031;-68
2023/06/13 09:39:14;;;;;;;7.20;3.33;;;;;;;22.99;29.15;100888.31;7393232;19;20078;-69
2023/06/13 09:41:43;;;;;;;8.50;3.03;;;;;;;23.07;29.36;100895.78;7391168;19;20542;-68
2023/06/13 09:44:12;;;;;;;6.65;3.28;;;;;;;23.11;29.21;100889.25;7391739;19;20031;-69
2023/06/13 09:46:45;;;;;;;4.82;3.17;;;;;;;23.10;29.59;100892.88;7393269;19;20028;-67
2023/06/13 09:49:13;;;;;;;7.35;2.88;;;;;;;23.13;29.53;100889.13;7392056;19;20018;-67
2023/06/13 09:51:42;;;;;;;8.88;3.20;;;;;;;23.18;29.67;100879.84;7394710;19;20023;-67
2023/06/13 09:54:11;;;;;;;7.07;2.90;;;;;;;23.23;29.20;100879.53;7391527;19;20019;-67
2023/06/13 09:56:42;;;;;;;4.47;2.40;;;;;;;23.26;28.36;100884.63;7394227;19;20380;-67
2023/06/13 09:59:10;;;;;;;5.10;2.55;;;;;;;23.35;27.82;100878.59;7391339;19;20022;-67
2023/06/13 10:01:39;;;;;;;6.53;2.60;;;;;;;23.43;27.39;100883.41;7391129;19;20011;-67
2023/06/13 10:04:12;;;;;;;4.05;2.47;;;;;;;23.50;26.59;100876.59;7390352;19;20592;-67
2023/06/13 10:06:40;;;;;;;6.22;3.00;;;;;;;23.53;27.07;100881.75;7393099;19;20074;-68
2023/06/13 10:09:10;;;;;;;3.47;2.40;;;;;;;23.56;26.86;100880.66;7393216;19;20022;-69
2023/06/13 10:11:43;;;;;;;3.65;2.90;;;;;;;23.55;27.13;100878.94;7397055;19;20030;-66
2023/06/13 10:14:13;;;;;;;4.18;2.72;;;;;;;23.55;27.47;100877.13;7397343;19;20036;-67
2023/06/13 10:16:46;;;;;;;4.03;2.67;;;;;;;23.57;27.17;100883.22;7398078;19;20015;-67
2023/06/13 10:19:21;;;;;;;8.60;2.83;;;;;;;23.65;27.63;100869.25;7400061;19;20423;-67
2023/06/13 10:21:51;;;;;;;4.07;2.78;;;;;;;23.75;27.11;100867.59;7399298;19;20022;-68
2023/06/13 10:24:19;;;;;;;4.53;2.70;;;;;;;23.83;26.94;100867.00;7397263;19;20435;-70
2023/06/13 10:26:48;;;;;;;6.68;2.47;;;;;;;23.90;27.19;100864.72;7399681;19;20055;-71
2023/06/13 10:29:44;;;;;;;8.00;3.55;;;;;;;23.98;26.79;100874.88;7396844;19;20035;-67
2023/06/13 10:32:26;;;;;;;6.15;2.90;;;;;;;24.10;26.62;100868.59;7399352;19;20039;-68
2023/06/13 10:35:24;;;;;;;4.82;3.22;;;;;;;24.18;27.11;100857.28;7398619;19;20019;-67
2023/06/13 10:38:24;;;;;;;3.00;2.47;;;;;;;24.27;26.63;100853.88;7397123;19;20042;-67
2023/06/13 10:41:23;;;;;;;6.07;2.80;;;;;;;24.40;26.50;100854.63;7397792;19;20491;-67
2023/06/13 10:43:55;;;;;;;5.63;2.67;;;;;;;24.53;26.80;100848.31;7395897;19;20048;-67
2023/06/13 10:46:24;;;;;;;3.65;3.00;;;;;;;24.65;26.97;100830.41;7399349;19;20039;-67
2023/06/13 10:48:54;;;;;;;10.05;3.05;;;;;;;24.75;26.42;100847.47;7397151;19;20011;-67
2023/06/13 10:51:28;;;;;;;7.80;2.70;;;;;;;24.79;25.24;100851.59;7396519;19;20381;-68
2023/06/13 10:54:00;;;;;;;5.15;2.78;;;;;;;24.79;25.47;100854.28;7397108;19;20440;-67
2023/06/13 10:56:32;;;;;;;6.63;4.47;;;;;;;24.77;25.64;100856.25;7398429;19;20017;-67
2023/06/13 10:59:05;;;;;;;8.10;3.67;;;;;;;24.81;25.89;100851.50;7396149;19;20031;-67
2023/06/13 11:01:35;;;;;;;5.80;3.13;;;;;;;24.86;26.23;100850.13;7396651;19;20483;-67
2023/06/13 11:04:09;;;;;;;7.18;3.90;;;;;;;24.91;26.20;100851.56;7396258;19;20018;-68
2023/06/13 11:06:42;;;;;;;6.07;3.00;;;;;;;24.96;26.13;100854.75;7398431;19;20070;-68
2023/06/13 11:09:16;;;;;;;7.10;3.15;;;;;;;24.99;26.26;100849.97;7396250;19;20022;-68
2023/06/13 11:11:52;;;;;;;8.00;3.60;;;;;;;25.03;25.96;100851.47;7398565;19;20018;-68
2023/06/13 11:14:27;;;;;;;5.53;2.78;;;;;;;25.09;26.07;100855.47;7395718;19;20028;-68
2023/06/13 11:16:57;;;;;;;5.40;2.78;;;;;;;25.15;26.50;100856.78;7398263;19;20035;-70
2023/06/13 11:19:27;;;;;;;6.93;2.90;;;;;;;25.17;26.55;100850.34;7396053;19;20040;-67
2023/06/13 11:22:16;;;;;;;3.80;2.65;;;;;;;25.21;26.11;100849.09;7395229;19;20447;-68
2023/06/13 11:24:44;;;;;;;5.55;2.95;;;;;;;25.24;26.08;100852.47;7394090;19;20356;-67
2023/06/13 11:27:15;;;;;;;6.30;2.95;;;;;;;25.28;26.02;100860.16;7396370;19;20510;-68
2023/06/13 11:29:44;;;;;;;8.38;2.92;;;;;;;25.32;25.78;100850.03;7395900;19;20022;-67
2023/06/13 11:32:14;;;;;;;6.85;3.10;;;;;;;25.39;25.92;100851.28;7394705;19;20015;-68
2023/06/13 11:34:50;;;;;;;7.28;3.30;;;;;;;25.40;25.45;100847.59;7394641;19;20018;-68
2023/06/13 11:37:29;;;;;;;7.40;2.83;;;;;;;25.43;25.13;100841.13;7394880;19;20018;-69